עמוד ראשי
METAR-TAF:

METAR-TAF

שדות תעופה :

Nelson Lagoon, אלסקה, ארצות הברית

קו רוחב: 56-00-27N, קו אורך: 161-09-37W, גובה: 4מטר

תצפית מזג אוויר נוכחית

הדו"ח נערך לפני 29דקות, בשעה 15:56 UTC
רוח 4קשר מכיוון צפון/צפון-מזרח
טמפרטורת 6 צלסיוס
לחות 100%
לחץ 1023 hPa
ראות: 16.1קילומטר
שמיים נקיים

METAR: PAOU 151556Z AUTO 03004KT 10SM CLR 06/06 A3022 RMK AO2 SLP234 T00610056 PNO $

זמן: 08:25 (16:25 UTC)


TAF: חסר

תצפיות ותחזיות מזג אוויר לגבי יותר מ- 4,000 שדות תעופה ברחבי העולם. דוחות METAR ו- TAF.

התחנות הזמינות מסומנות בנקודות צהובות ואדומות על גבי המפה.

העבר את העכבר לנקודה הצבעונית על מנת לראות את שם התחנה.

לאחר מכן, לחץ כדי לראות את תוכן ואת תחזיות מזג האוויר.

כדי לשנות את המפה: לחץ על הכפתורים הירוקים עם הפלוס השחור כדי להתקרב; על הכפתור הירוק עם המקף כדי להתרחק; או בחיצים הירוקים למפות סמוכות.


METAR-TAF: